sensor_id;sensor_type;location;lat;lon;timestamp;P1;durP1;ratioP1;P2;durP2;ratioP2
67737;SDS011;54534;43.612;1.572;2022-12-18T00:00:59;14.33;;;5.73;;
67737;SDS011;54534;43.612;1.572;2022-12-18T00:03:25;10.07;;;4.83;;
67737;SDS011;54534;43.612;1.572;2022-12-18T00:05:51;9.67;;;5.13;;
67737;SDS011;54534;43.612;1.572;2022-12-18T00:08:17;13.50;;;4.77;;
67737;SDS011;54534;43.612;1.572;2022-12-18T00:10:44;8.53;;;4.97;;
67737;SDS011;54534;43.612;1.572;2022-12-18T00:13:10;10.43;;;5.13;;
67737;SDS011;54534;43.612;1.572;2022-12-18T00:15:36;7.57;;;4.43;;
67737;SDS011;54534;43.612;1.572;2022-12-18T00:18:03;5.87;;;4.23;;
67737;SDS011;54534;43.612;1.572;2022-12-18T00:20:29;9.70;;;4.77;;
67737;SDS011;54534;43.612;1.572;2022-12-18T00:22:55;7.57;;;4.50;;
67737;SDS011;54534;43.612;1.572;2022-12-18T00:25:21;6.70;;;4.40;;
67737;SDS011;54534;43.612;1.572;2022-12-18T00:27:46;15.33;;;4.57;;
67737;SDS011;54534;43.612;1.572;2022-12-18T00:30:12;7.30;;;4.37;;
67737;SDS011;54534;43.612;1.572;2022-12-18T00:32:38;5.43;;;3.70;;
67737;SDS011;54534;43.612;1.572;2022-12-18T00:35:04;7.60;;;3.60;;
67737;SDS011;54534;43.612;1.572;2022-12-18T00:37:30;6.43;;;3.83;;
67737;SDS011;54534;43.612;1.572;2022-12-18T00:39:55;7.37;;;3.57;;
67737;SDS011;54534;43.612;1.572;2022-12-18T00:42:21;8.63;;;4.03;;
67737;SDS011;54534;43.612;1.572;2022-12-18T00:45:09;6.83;;;3.37;;
67737;SDS011;54534;43.612;1.572;2022-12-18T00:47:34;6.97;;;3.70;;
67737;SDS011;54534;43.612;1.572;2022-12-18T00:50:00;7.03;;;3.73;;
67737;SDS011;54534;43.612;1.572;2022-12-18T00:52:25;5.47;;;3.30;;
67737;SDS011;54534;43.612;1.572;2022-12-18T00:54:51;5.10;;;3.67;;
67737;SDS011;54534;43.612;1.572;2022-12-18T00:57:16;7.40;;;3.80;;
67737;SDS011;54534;43.612;1.572;2022-12-18T00:59:42;6.03;;;3.40;;
67737;SDS011;54534;43.612;1.572;2022-12-18T01:02:07;6.53;;;3.53;;
67737;SDS011;54534;43.612;1.572;2022-12-18T01:04:32;4.97;;;3.03;;
67737;SDS011;54534;43.612;1.572;2022-12-18T01:06:58;5.97;;;3.43;;
67737;SDS011;54534;43.612;1.572;2022-12-18T01:09:24;5.47;;;3.83;;
67737;SDS011;54534;43.612;1.572;2022-12-18T01:11:49;6.20;;;3.43;;
67737;SDS011;54534;43.612;1.572;2022-12-18T01:14:15;5.83;;;3.10;;
67737;SDS011;54534;43.612;1.572;2022-12-18T01:16:40;4.37;;;2.97;;
67737;SDS011;54534;43.612;1.572;2022-12-18T01:19:05;6.53;;;4.23;;
67737;SDS011;54534;43.612;1.572;2022-12-18T01:21:31;4.60;;;3.27;;
67737;SDS011;54534;43.612;1.572;2022-12-18T01:23:56;4.83;;;3.30;;
67737;SDS011;54534;43.612;1.572;2022-12-18T01:26:22;4.73;;;3.20;;
67737;SDS011;54534;43.612;1.572;2022-12-18T01:28:49;3.90;;;3.10;;
67737;SDS011;54534;43.612;1.572;2022-12-18T01:33:44;5.33;;;3.37;;
67737;SDS011;54534;43.612;1.572;2022-12-18T01:36:17;4.70;;;3.33;;
67737;SDS011;54534;43.612;1.572;2022-12-18T01:38:47;4.87;;;2.90;;
67737;SDS011;54534;43.612;1.572;2022-12-18T01:41:14;6.90;;;3.00;;
67737;SDS011;54534;43.612;1.572;2022-12-18T01:46:07;4.37;;;3.13;;
67737;SDS011;54534;43.612;1.572;2022-12-18T01:48:33;5.80;;;3.23;;
67737;SDS011;54534;43.612;1.572;2022-12-18T01:50:59;6.73;;;3.00;;
67737;SDS011;54534;43.612;1.572;2022-12-18T01:53:25;4.13;;;2.80;;
67737;SDS011;54534;43.612;1.572;2022-12-18T01:55:57;3.43;;;2.57;;
67737;SDS011;54534;43.612;1.572;2022-12-18T01:58:41;5.00;;;2.97;;
67737;SDS011;54534;43.612;1.572;2022-12-18T02:01:13;2.92;;;2.53;;
67737;SDS011;54534;43.612;1.572;2022-12-18T02:03:42;2.50;;;2.23;;
67737;SDS011;54534;43.612;1.572;2022-12-18T02:06:12;3.28;;;2.80;;
67737;SDS011;54534;43.612;1.572;2022-12-18T02:11:21;3.27;;;2.57;;
67737;SDS011;54534;43.612;1.572;2022-12-18T02:16:39;4.50;;;2.60;;
67737;SDS011;54534;43.612;1.572;2022-12-18T02:19:35;3.27;;;2.90;;
67737;SDS011;54534;43.612;1.572;2022-12-18T02:25:09;3.77;;;3.00;;
67737;SDS011;54534;43.612;1.572;2022-12-18T02:30:05;4.50;;;3.00;;
67737;SDS011;54534;43.612;1.572;2022-12-18T02:32:36;3.83;;;2.93;;
67737;SDS011;54534;43.612;1.572;2022-12-18T02:35:05;3.37;;;2.60;;
67737;SDS011;54534;43.612;1.572;2022-12-18T02:37:33;3.47;;;2.70;;
67737;SDS011;54534;43.612;1.572;2022-12-18T02:40:00;3.63;;;2.90;;
67737;SDS011;54534;43.612;1.572;2022-12-18T02:42:27;3.57;;;2.70;;
67737;SDS011;54534;43.612;1.572;2022-12-18T02:44:53;3.57;;;2.50;;
67737;SDS011;54534;43.612;1.572;2022-12-18T02:47:20;3.70;;;2.97;;
67737;SDS011;54534;43.612;1.572;2022-12-18T02:52:55;3.70;;;2.43;;
67737;SDS011;54534;43.612;1.572;2022-12-18T02:58:26;2.87;;;2.57;;
67737;SDS011;54534;43.612;1.572;2022-12-18T03:01:11;3.77;;;3.10;;
67737;SDS011;54534;43.612;1.572;2022-12-18T03:03:41;3.30;;;2.70;;
67737;SDS011;54534;43.612;1.572;2022-12-18T03:06:15;3.03;;;2.70;;
67737;SDS011;54534;43.612;1.572;2022-12-18T03:08:58;3.13;;;2.63;;
67737;SDS011;54534;43.612;1.572;2022-12-18T03:11:28;3.57;;;2.60;;
67737;SDS011;54534;43.612;1.572;2022-12-18T03:14:16;3.10;;;2.40;;
67737;SDS011;54534;43.612;1.572;2022-12-18T03:16:47;3.90;;;2.77;;
67737;SDS011;54534;43.612;1.572;2022-12-18T03:19:19;4.10;;;2.73;;
67737;SDS011;54534;43.612;1.572;2022-12-18T03:21:50;3.10;;;2.53;;
67737;SDS011;54534;43.612;1.572;2022-12-18T03:24:19;2.72;;;2.22;;
67737;SDS011;54534;43.612;1.572;2022-12-18T03:26:47;3.50;;;2.80;;
67737;SDS011;54534;43.612;1.572;2022-12-18T03:29:18;3.33;;;2.43;;
67737;SDS011;54534;43.612;1.572;2022-12-18T03:31:51;4.33;;;2.60;;
67737;SDS011;54534;43.612;1.572;2022-12-18T03:34:34;3.37;;;2.60;;
67737;SDS011;54534;43.612;1.572;2022-12-18T03:37:03;2.30;;;2.10;;
67737;SDS011;54534;43.612;1.572;2022-12-18T03:39:30;2.77;;;2.40;;
67737;SDS011;54534;43.612;1.572;2022-12-18T03:42:19;3.33;;;2.40;;
67737;SDS011;54534;43.612;1.572;2022-12-18T03:50:56;3.57;;;2.50;;
67737;SDS011;54534;43.612;1.572;2022-12-18T03:55:56;3.17;;;2.27;;
67737;SDS011;54534;43.612;1.572;2022-12-18T03:58:24;2.67;;;2.20;;
67737;SDS011;54534;43.612;1.572;2022-12-18T04:00:52;3.10;;;2.23;;
67737;SDS011;54534;43.612;1.572;2022-12-18T04:03:21;2.75;;;2.40;;
67737;SDS011;54534;43.612;1.572;2022-12-18T04:05:49;3.40;;;2.33;;
67737;SDS011;54534;43.612;1.572;2022-12-18T04:08:17;2.90;;;2.30;;
67737;SDS011;54534;43.612;1.572;2022-12-18T04:10:43;2.77;;;2.10;;
67737;SDS011;54534;43.612;1.572;2022-12-18T04:13:09;2.50;;;2.20;;
67737;SDS011;54534;43.612;1.572;2022-12-18T04:15:35;2.77;;;2.40;;
67737;SDS011;54534;43.612;1.572;2022-12-18T04:18:02;3.27;;;2.37;;
67737;SDS011;54534;43.612;1.572;2022-12-18T04:20:27;2.60;;;2.20;;
67737;SDS011;54534;43.612;1.572;2022-12-18T04:22:53;2.30;;;2.10;;
67737;SDS011;54534;43.612;1.572;2022-12-18T04:25:18;2.20;;;1.90;;
67737;SDS011;54534;43.612;1.572;2022-12-18T04:27:44;2.80;;;2.40;;
67737;SDS011;54534;43.612;1.572;2022-12-18T04:30:09;2.20;;;2.00;;
67737;SDS011;54534;43.612;1.572;2022-12-18T04:32:35;2.30;;;1.90;;
67737;SDS011;54534;43.612;1.572;2022-12-18T04:35:00;2.57;;;2.10;;
67737;SDS011;54534;43.612;1.572;2022-12-18T04:37:26;2.67;;;2.00;;
67737;SDS011;54534;43.612;1.572;2022-12-18T04:39:51;2.50;;;2.30;;
67737;SDS011;54534;43.612;1.572;2022-12-18T04:42:17;3.30;;;2.27;;
67737;SDS011;54534;43.612;1.572;2022-12-18T04:44:42;2.57;;;2.13;;
67737;SDS011;54534;43.612;1.572;2022-12-18T04:47:08;2.23;;;2.03;;
67737;SDS011;54534;43.612;1.572;2022-12-18T04:49:33;1.83;;;1.70;;
67737;SDS011;54534;43.612;1.572;2022-12-18T04:51:58;2.10;;;1.90;;
67737;SDS011;54534;43.612;1.572;2022-12-18T04:54:24;2.40;;;2.20;;
67737;SDS011;54534;43.612;1.572;2022-12-18T04:56:50;2.10;;;1.90;;
67737;SDS011;54534;43.612;1.572;2022-12-18T04:59:15;2.93;;;2.17;;
67737;SDS011;54534;43.612;1.572;2022-12-18T05:01:41;2.70;;;2.27;;
67737;SDS011;54534;43.612;1.572;2022-12-18T05:04:06;2.43;;;2.10;;
67737;SDS011;54534;43.612;1.572;2022-12-18T05:06:32;3.10;;;2.20;;
67737;SDS011;54534;43.612;1.572;2022-12-18T05:08:57;2.57;;;2.13;;
67737;SDS011;54534;43.612;1.572;2022-12-18T05:11:22;3.20;;;2.10;;
67737;SDS011;54534;43.612;1.572;2022-12-18T05:13:48;2.00;;;1.80;;
67737;SDS011;54534;43.612;1.572;2022-12-18T05:16:14;2.50;;;2.30;;
67737;SDS011;54534;43.612;1.572;2022-12-18T05:18:40;2.63;;;2.20;;
67737;SDS011;54534;43.612;1.572;2022-12-18T05:21:05;4.10;;;2.47;;
67737;SDS011;54534;43.612;1.572;2022-12-18T05:23:31;2.43;;;2.23;;
67737;SDS011;54534;43.612;1.572;2022-12-18T05:25:57;2.30;;;2.10;;
67737;SDS011;54534;43.612;1.572;2022-12-18T05:28:25;2.10;;;1.90;;
67737;SDS011;54534;43.612;1.572;2022-12-18T05:30:53;2.73;;;2.50;;
67737;SDS011;54534;43.612;1.572;2022-12-18T05:33:21;3.03;;;2.30;;
67737;SDS011;54534;43.612;1.572;2022-12-18T05:35:52;1.93;;;1.73;;
67737;SDS011;54534;43.612;1.572;2022-12-18T05:38:19;2.13;;;1.83;;
67737;SDS011;54534;43.612;1.572;2022-12-18T05:40:45;3.87;;;2.20;;
67737;SDS011;54534;43.612;1.572;2022-12-18T05:43:11;2.53;;;1.87;;
67737;SDS011;54534;43.612;1.572;2022-12-18T05:45:37;2.00;;;1.83;;
67737;SDS011;54534;43.612;1.572;2022-12-18T05:48:03;4.07;;;2.30;;
67737;SDS011;54534;43.612;1.572;2022-12-18T05:50:29;2.30;;;2.10;;
67737;SDS011;54534;43.612;1.572;2022-12-18T05:52:54;3.40;;;2.33;;
67737;SDS011;54534;43.612;1.572;2022-12-18T05:55:20;2.17;;;1.80;;
67737;SDS011;54534;43.612;1.572;2022-12-18T05:57:45;2.00;;;1.80;;
67737;SDS011;54534;43.612;1.572;2022-12-18T06:00:11;2.07;;;1.87;;
67737;SDS011;54534;43.612;1.572;2022-12-18T06:02:36;2.37;;;2.03;;
67737;SDS011;54534;43.612;1.572;2022-12-18T06:05:02;2.00;;;1.80;;
67737;SDS011;54534;43.612;1.572;2022-12-18T06:07:27;2.40;;;1.80;;
67737;SDS011;54534;43.612;1.572;2022-12-18T06:09:53;1.80;;;1.70;;
67737;SDS011;54534;43.612;1.572;2022-12-18T06:12:18;2.30;;;1.87;;
67737;SDS011;54534;43.612;1.572;2022-12-18T06:14:44;2.73;;;1.83;;
67737;SDS011;54534;43.612;1.572;2022-12-18T06:17:09;2.20;;;2.00;;
67737;SDS011;54534;43.612;1.572;2022-12-18T06:19:34;2.20;;;1.93;;
67737;SDS011;54534;43.612;1.572;2022-12-18T06:22:00;3.47;;;2.27;;
67737;SDS011;54534;43.612;1.572;2022-12-18T06:24:25;1.87;;;1.73;;
67737;SDS011;54534;43.612;1.572;2022-12-18T06:26:51;3.57;;;2.33;;
67737;SDS011;54534;43.612;1.572;2022-12-18T06:29:16;3.60;;;2.30;;
67737;SDS011;54534;43.612;1.572;2022-12-18T06:31:42;2.20;;;1.80;;
67737;SDS011;54534;43.612;1.572;2022-12-18T06:34:07;2.17;;;1.90;;
67737;SDS011;54534;43.612;1.572;2022-12-18T06:36:32;2.80;;;2.50;;
67737;SDS011;54534;43.612;1.572;2022-12-18T06:38:58;3.10;;;2.10;;
67737;SDS011;54534;43.612;1.572;2022-12-18T06:41:24;2.40;;;2.20;;
67737;SDS011;54534;43.612;1.572;2022-12-18T06:43:49;2.20;;;2.00;;
67737;SDS011;54534;43.612;1.572;2022-12-18T06:46:15;2.53;;;2.13;;
67737;SDS011;54534;43.612;1.572;2022-12-18T06:48:40;3.37;;;2.43;;
67737;SDS011;54534;43.612;1.572;2022-12-18T06:51:06;2.50;;;2.20;;
67737;SDS011;54534;43.612;1.572;2022-12-18T06:53:32;2.93;;;2.33;;
67737;SDS011;54534;43.612;1.572;2022-12-18T06:56:04;2.40;;;2.13;;
67737;SDS011;54534;43.612;1.572;2022-12-18T06:58:32;2.60;;;2.20;;
67737;SDS011;54534;43.612;1.572;2022-12-18T07:01:02;2.37;;;2.13;;
67737;SDS011;54534;43.612;1.572;2022-12-18T07:03:29;2.20;;;2.00;;
67737;SDS011;54534;43.612;1.572;2022-12-18T07:05:55;2.83;;;2.50;;
67737;SDS011;54534;43.612;1.572;2022-12-18T07:08:21;3.20;;;2.27;;
67737;SDS011;54534;43.612;1.572;2022-12-18T07:10:46;2.83;;;2.20;;
67737;SDS011;54534;43.612;1.572;2022-12-18T07:13:14;2.37;;;2.10;;
67737;SDS011;54534;43.612;1.572;2022-12-18T07:15:40;3.43;;;2.37;;
67737;SDS011;54534;43.612;1.572;2022-12-18T07:18:05;4.03;;;2.67;;
67737;SDS011;54534;43.612;1.572;2022-12-18T07:20:30;2.20;;;1.80;;
67737;SDS011;54534;43.612;1.572;2022-12-18T07:22:56;4.53;;;2.43;;
67737;SDS011;54534;43.612;1.572;2022-12-18T07:25:21;2.23;;;2.03;;
67737;SDS011;54534;43.612;1.572;2022-12-18T07:27:46;2.50;;;2.17;;
67737;SDS011;54534;43.612;1.572;2022-12-18T07:30:12;2.53;;;2.30;;
67737;SDS011;54534;43.612;1.572;2022-12-18T07:32:37;3.33;;;2.07;;
67737;SDS011;54534;43.612;1.572;2022-12-18T07:35:03;3.30;;;2.27;;
67737;SDS011;54534;43.612;1.572;2022-12-18T07:37:28;2.73;;;2.50;;
67737;SDS011;54534;43.612;1.572;2022-12-18T07:39:54;2.63;;;2.43;;
67737;SDS011;54534;43.612;1.572;2022-12-18T07:42:19;2.93;;;2.20;;
67737;SDS011;54534;43.612;1.572;2022-12-18T07:44:57;2.17;;;1.90;;
67737;SDS011;54534;43.612;1.572;2022-12-18T07:47:23;3.67;;;2.33;;
67737;SDS011;54534;43.612;1.572;2022-12-18T07:49:49;3.30;;;2.73;;
67737;SDS011;54534;43.612;1.572;2022-12-18T07:52:14;3.33;;;2.27;;
67737;SDS011;54534;43.612;1.572;2022-12-18T07:54:40;4.87;;;2.00;;
67737;SDS011;54534;43.612;1.572;2022-12-18T07:57:06;2.37;;;2.17;;
67737;SDS011;54534;43.612;1.572;2022-12-18T07:59:32;4.07;;;2.07;;
67737;SDS011;54534;43.612;1.572;2022-12-18T08:01:58;3.20;;;2.30;;
67737;SDS011;54534;43.612;1.572;2022-12-18T08:04:23;2.00;;;1.90;;
67737;SDS011;54534;43.612;1.572;2022-12-18T08:06:49;2.93;;;2.27;;
67737;SDS011;54534;43.612;1.572;2022-12-18T08:09:15;2.47;;;2.20;;
67737;SDS011;54534;43.612;1.572;2022-12-18T08:11:41;2.87;;;2.63;;
67737;SDS011;54534;43.612;1.572;2022-12-18T08:14:06;2.83;;;2.50;;
67737;SDS011;54534;43.612;1.572;2022-12-18T08:16:32;6.07;;;3.20;;
67737;SDS011;54534;43.612;1.572;2022-12-18T08:18:58;4.97;;;2.87;;
67737;SDS011;54534;43.612;1.572;2022-12-18T08:21:25;7.33;;;3.63;;
67737;SDS011;54534;43.612;1.572;2022-12-18T08:23:53;4.33;;;3.17;;
67737;SDS011;54534;43.612;1.572;2022-12-18T08:26:20;6.27;;;3.50;;
67737;SDS011;54534;43.612;1.572;2022-12-18T08:28:46;4.27;;;3.70;;
67737;SDS011;54534;43.612;1.572;2022-12-18T08:31:11;3.60;;;3.30;;
67737;SDS011;54534;43.612;1.572;2022-12-18T08:33:37;4.17;;;3.60;;
67737;SDS011;54534;43.612;1.572;2022-12-18T08:36:04;3.80;;;3.43;;
67737;SDS011;54534;43.612;1.572;2022-12-18T08:38:31;4.77;;;3.40;;
67737;SDS011;54534;43.612;1.572;2022-12-18T08:43:29;4.10;;;3.70;;
67737;SDS011;54534;43.612;1.572;2022-12-18T08:46:14;5.37;;;3.80;;
67737;SDS011;54534;43.612;1.572;2022-12-18T08:48:39;7.47;;;3.60;;
67737;SDS011;54534;43.612;1.572;2022-12-18T08:51:05;7.20;;;3.50;;
67737;SDS011;54534;43.612;1.572;2022-12-18T08:53:30;23.30;;;4.63;;
67737;SDS011;54534;43.612;1.572;2022-12-18T08:55:56;7.57;;;3.73;;
67737;SDS011;54534;43.612;1.572;2022-12-18T08:58:21;5.37;;;3.70;;
67737;SDS011;54534;43.612;1.572;2022-12-18T09:00:47;6.27;;;3.20;;
67737;SDS011;54534;43.612;1.572;2022-12-18T09:03:16;5.37;;;3.90;;
67737;SDS011;54534;43.612;1.572;2022-12-18T09:05:42;6.68;;;3.40;;
67737;SDS011;54534;43.612;1.572;2022-12-18T09:08:08;6.20;;;3.43;;
67737;SDS011;54534;43.612;1.572;2022-12-18T09:10:34;5.70;;;3.33;;
67737;SDS011;54534;43.612;1.572;2022-12-18T09:13:06;4.40;;;2.93;;
67737;SDS011;54534;43.612;1.572;2022-12-18T09:15:32;4.37;;;3.20;;
67737;SDS011;54534;43.612;1.572;2022-12-18T09:17:57;3.67;;;3.33;;
67737;SDS011;54534;43.612;1.572;2022-12-18T09:20:22;8.30;;;3.40;;
67737;SDS011;54534;43.612;1.572;2022-12-18T09:22:49;4.63;;;2.60;;
67737;SDS011;54534;43.612;1.572;2022-12-18T09:25:14;5.67;;;2.90;;
67737;SDS011;54534;43.612;1.572;2022-12-18T09:27:40;3.57;;;3.07;;
67737;SDS011;54534;43.612;1.572;2022-12-18T09:30:05;7.00;;;3.30;;
67737;SDS011;54534;43.612;1.572;2022-12-18T09:32:31;4.73;;;3.20;;
67737;SDS011;54534;43.612;1.572;2022-12-18T09:34:57;5.47;;;3.37;;
67737;SDS011;54534;43.612;1.572;2022-12-18T09:37:22;4.57;;;2.80;;
67737;SDS011;54534;43.612;1.572;2022-12-18T09:39:47;6.03;;;3.23;;
67737;SDS011;54534;43.612;1.572;2022-12-18T09:42:22;12.33;;;3.40;;
67737;SDS011;54534;43.612;1.572;2022-12-18T09:44:52;4.87;;;3.00;;
67737;SDS011;54534;43.612;1.572;2022-12-18T09:50:15;5.00;;;3.35;;
67737;SDS011;54534;43.612;1.572;2022-12-18T09:52:50;7.60;;;2.80;;
67737;SDS011;54534;43.612;1.572;2022-12-18T09:57:57;43.53;;;4.07;;
67737;SDS011;54534;43.612;1.572;2022-12-18T10:00:29;4.37;;;3.03;;
67737;SDS011;54534;43.612;1.572;2022-12-18T10:02:59;5.70;;;3.37;;
67737;SDS011;54534;43.612;1.572;2022-12-18T10:08:18;3.50;;;2.40;;
67737;SDS011;54534;43.612;1.572;2022-12-18T10:10:59;4.03;;;2.70;;
67737;SDS011;54534;43.612;1.572;2022-12-18T10:13:38;2.97;;;2.60;;
67737;SDS011;54534;43.612;1.572;2022-12-18T10:16:16;8.90;;;3.00;;
67737;SDS011;54534;43.612;1.572;2022-12-18T10:27:09;4.73;;;2.60;;
67737;SDS011;54534;43.612;1.572;2022-12-18T10:29:38;16.70;;;3.73;;
67737;SDS011;54534;43.612;1.572;2022-12-18T10:32:04;3.87;;;2.23;;
67737;SDS011;54534;43.612;1.572;2022-12-18T10:34:29;6.63;;;2.57;;
67737;SDS011;54534;43.612;1.572;2022-12-18T10:36:55;5.67;;;2.30;;
67737;SDS011;54534;43.612;1.572;2022-12-18T10:39:23;4.93;;;2.50;;
67737;SDS011;54534;43.612;1.572;2022-12-18T10:41:51;7.40;;;2.83;;
67737;SDS011;54534;43.612;1.572;2022-12-18T10:44:20;9.33;;;2.53;;
67737;SDS011;54534;43.612;1.572;2022-12-18T10:46:50;4.57;;;2.10;;
67737;SDS011;54534;43.612;1.572;2022-12-18T10:49:27;4.37;;;2.27;;
67737;SDS011;54534;43.612;1.572;2022-12-18T10:52:07;4.43;;;2.23;;
67737;SDS011;54534;43.612;1.572;2022-12-18T10:54:45;3.57;;;2.47;;
67737;SDS011;54534;43.612;1.572;2022-12-18T10:59:56;3.33;;;2.20;;
67737;SDS011;54534;43.612;1.572;2022-12-18T11:07:18;2.90;;;2.40;;
67737;SDS011;54534;43.612;1.572;2022-12-18T11:09:43;6.20;;;2.07;;
67737;SDS011;54534;43.612;1.572;2022-12-18T11:12:33;4.38;;;2.28;;
67737;SDS011;54534;43.612;1.572;2022-12-18T11:14:58;4.23;;;1.90;;
67737;SDS011;54534;43.612;1.572;2022-12-18T11:19:59;2.00;;;1.90;;
67737;SDS011;54534;43.612;1.572;2022-12-18T11:22:27;2.80;;;2.17;;
67737;SDS011;54534;43.612;1.572;2022-12-18T11:30:06;4.50;;;1.93;;
67737;SDS011;54534;43.612;1.572;2022-12-18T11:32:47;4.43;;;3.13;;
67737;SDS011;54534;43.612;1.572;2022-12-18T11:35:21;7.60;;;2.00;;
67737;SDS011;54534;43.612;1.572;2022-12-18T11:43:49;1.67;;;1.57;;
67737;SDS011;54534;43.612;1.572;2022-12-18T11:46:42;3.33;;;2.53;;
67737;SDS011;54534;43.612;1.572;2022-12-18T11:49:25;2.17;;;1.60;;
67737;SDS011;54534;43.612;1.572;2022-12-18T11:52:00;2.53;;;1.67;;
67737;SDS011;54534;43.612;1.572;2022-12-18T11:54:30;2.63;;;1.80;;
67737;SDS011;54534;43.612;1.572;2022-12-18T11:56:56;2.40;;;1.57;;
67737;SDS011;54534;43.612;1.572;2022-12-18T12:10:51;2.88;;;1.60;;
67737;SDS011;54534;43.612;1.572;2022-12-18T12:13:46;1.77;;;1.57;;
67737;SDS011;54534;43.612;1.572;2022-12-18T12:21:44;2.87;;;1.40;;
67737;SDS011;54534;43.612;1.572;2022-12-18T12:40:31;89.40;;;25.77;;
67737;SDS011;54534;43.612;1.572;2022-12-18T12:43:05;73.03;;;22.50;;
67737;SDS011;54534;43.612;1.572;2022-12-18T12:48:28;68.67;;;28.90;;
67737;SDS011;54534;43.612;1.572;2022-12-18T12:51:10;62.77;;;27.00;;
67737;SDS011;54534;43.612;1.572;2022-12-18T12:53:38;58.43;;;23.77;;
67737;SDS011;54534;43.612;1.572;2022-12-18T12:56:06;42.27;;;19.77;;
67737;SDS011;54534;43.612;1.572;2022-12-18T12:58:36;34.90;;;17.10;;
67737;SDS011;54534;43.612;1.572;2022-12-18T13:06:47;28.90;;;14.20;;
67737;SDS011;54534;43.612;1.572;2022-12-18T13:09:22;30.37;;;13.03;;
67737;SDS011;54534;43.612;1.572;2022-12-18T13:11:47;33.43;;;12.87;;
67737;SDS011;54534;43.612;1.572;2022-12-18T13:20:04;25.70;;;11.83;;
67737;SDS011;54534;43.612;1.572;2022-12-18T13:25:01;19.63;;;9.43;;
67737;SDS011;54534;43.612;1.572;2022-12-18T13:38:45;17.33;;;5.27;;
67737;SDS011;54534;43.612;1.572;2022-12-18T13:43:37;5.10;;;3.43;;
67737;SDS011;54534;43.612;1.572;2022-12-18T13:48:47;12.70;;;4.10;;
67737;SDS011;54534;43.612;1.572;2022-12-18T13:51:22;7.43;;;3.30;;
67737;SDS011;54534;43.612;1.572;2022-12-18T13:53:51;11.37;;;3.80;;
67737;SDS011;54534;43.612;1.572;2022-12-18T13:56:22;5.32;;;3.28;;
67737;SDS011;54534;43.612;1.572;2022-12-18T13:59:08;5.57;;;3.30;;
67737;SDS011;54534;43.612;1.572;2022-12-18T14:01:35;4.93;;;3.10;;
67737;SDS011;54534;43.612;1.572;2022-12-18T14:05:01;4.23;;;3.20;;
67737;SDS011;54534;43.612;1.572;2022-12-18T14:09:28;3.72;;;3.03;;
67737;SDS011;54534;43.612;1.572;2022-12-18T14:11:56;5.00;;;3.17;;
67737;SDS011;54534;43.612;1.572;2022-12-18T14:14:43;6.93;;;2.83;;
67737;SDS011;54534;43.612;1.572;2022-12-18T14:17:12;5.75;;;2.90;;
67737;SDS011;54534;43.612;1.572;2022-12-18T14:19:46;6.20;;;3.00;;
67737;SDS011;54534;43.612;1.572;2022-12-18T14:22:14;3.70;;;2.80;;
67737;SDS011;54534;43.612;1.572;2022-12-18T14:24:46;6.63;;;2.47;;
67737;SDS011;54534;43.612;1.572;2022-12-18T14:27:23;5.63;;;3.20;;
67737;SDS011;54534;43.612;1.572;2022-12-18T14:29:50;11.87;;;3.43;;
67737;SDS011;54534;43.612;1.572;2022-12-18T14:32:17;15.33;;;2.97;;
67737;SDS011;54534;43.612;1.572;2022-12-18T14:34:45;9.17;;;2.87;;
67737;SDS011;54534;43.612;1.572;2022-12-18T14:37:13;9.83;;;3.27;;
67737;SDS011;54534;43.612;1.572;2022-12-18T14:39:40;6.90;;;3.03;;
67737;SDS011;54534;43.612;1.572;2022-12-18T14:42:05;7.77;;;3.13;;
67737;SDS011;54534;43.612;1.572;2022-12-18T14:44:31;4.80;;;2.80;;
67737;SDS011;54534;43.612;1.572;2022-12-18T14:46:56;5.17;;;3.07;;
67737;SDS011;54534;43.612;1.572;2022-12-18T14:51:52;6.97;;;2.97;;
67737;SDS011;54534;43.612;1.572;2022-12-18T14:54:19;6.43;;;2.37;;
67737;SDS011;54534;43.612;1.572;2022-12-18T14:56:47;4.90;;;2.53;;
67737;SDS011;54534;43.612;1.572;2022-12-18T14:59:16;5.25;;;2.60;;
67737;SDS011;54534;43.612;1.572;2022-12-18T15:01:47;6.17;;;2.60;;
67737;SDS011;54534;43.612;1.572;2022-12-18T15:04:30;3.33;;;2.33;;
67737;SDS011;54534;43.612;1.572;2022-12-18T15:09:42;4.63;;;2.50;;
67737;SDS011;54534;43.612;1.572;2022-12-18T15:12:19;2.80;;;2.45;;
67737;SDS011;54534;43.612;1.572;2022-12-18T15:14:49;3.17;;;2.50;;
67737;SDS011;54534;43.612;1.572;2022-12-18T15:17:16;3.83;;;2.77;;
67737;SDS011;54534;43.612;1.572;2022-12-18T15:22:18;4.93;;;2.20;;
67737;SDS011;54534;43.612;1.572;2022-12-18T15:24:44;5.17;;;2.50;;
67737;SDS011;54534;43.612;1.572;2022-12-18T15:27:23;6.50;;;2.50;;
67737;SDS011;54534;43.612;1.572;2022-12-18T15:32:38;7.73;;;2.60;;
67737;SDS011;54534;43.612;1.572;2022-12-18T15:37:42;3.20;;;2.23;;
67737;SDS011;54534;43.612;1.572;2022-12-18T15:40:18;5.17;;;2.50;;
67737;SDS011;54534;43.612;1.572;2022-12-18T15:42:45;6.87;;;2.50;;
67737;SDS011;54534;43.612;1.572;2022-12-18T15:45:29;3.93;;;2.30;;
67737;SDS011;54534;43.612;1.572;2022-12-18T15:47:55;3.63;;;2.07;;
67737;SDS011;54534;43.612;1.572;2022-12-18T15:50:21;14.47;;;2.77;;
67737;SDS011;54534;43.612;1.572;2022-12-18T15:52:47;8.43;;;2.73;;
67737;SDS011;54534;43.612;1.572;2022-12-18T15:55:15;3.50;;;2.67;;
67737;SDS011;54534;43.612;1.572;2022-12-18T15:58:07;10.77;;;2.55;;
67737;SDS011;54534;43.612;1.572;2022-12-18T16:00:34;6.10;;;2.30;;
67737;SDS011;54534;43.612;1.572;2022-12-18T16:03:01;16.17;;;3.80;;
67737;SDS011;54534;43.612;1.572;2022-12-18T16:05:27;34.90;;;3.90;;
67737;SDS011;54534;43.612;1.572;2022-12-18T16:07:53;15.97;;;2.70;;
67737;SDS011;54534;43.612;1.572;2022-12-18T16:10:19;27.90;;;3.37;;
67737;SDS011;54534;43.612;1.572;2022-12-18T16:12:44;12.23;;;2.93;;
67737;SDS011;54534;43.612;1.572;2022-12-18T16:15:12;24.70;;;4.40;;
67737;SDS011;54534;43.612;1.572;2022-12-18T16:17:39;19.37;;;3.40;;
67737;SDS011;54534;43.612;1.572;2022-12-18T16:20:06;18.43;;;3.20;;
67737;SDS011;54534;43.612;1.572;2022-12-18T16:22:36;25.23;;;4.73;;
67737;SDS011;54534;43.612;1.572;2022-12-18T16:25:02;39.10;;;4.53;;
67737;SDS011;54534;43.612;1.572;2022-12-18T16:27:28;32.90;;;3.80;;
67737;SDS011;54534;43.612;1.572;2022-12-18T16:29:53;30.60;;;4.83;;
67737;SDS011;54534;43.612;1.572;2022-12-18T16:32:19;29.50;;;4.53;;
67737;SDS011;54534;43.612;1.572;2022-12-18T16:34:46;37.07;;;4.53;;
67737;SDS011;54534;43.612;1.572;2022-12-18T16:37:12;30.30;;;4.53;;
67737;SDS011;54534;43.612;1.572;2022-12-18T16:39:39;34.00;;;4.60;;
67737;SDS011;54534;43.612;1.572;2022-12-18T16:42:10;37.80;;;5.90;;
67737;SDS011;54534;43.612;1.572;2022-12-18T16:44:39;30.83;;;5.13;;
67737;SDS011;54534;43.612;1.572;2022-12-18T16:47:05;43.47;;;5.63;;
67737;SDS011;54534;43.612;1.572;2022-12-18T16:49:31;30.43;;;5.60;;
67737;SDS011;54534;43.612;1.572;2022-12-18T16:51:56;41.53;;;7.17;;
67737;SDS011;54534;43.612;1.572;2022-12-18T16:54:22;41.03;;;5.60;;
67737;SDS011;54534;43.612;1.572;2022-12-18T16:56:47;37.90;;;6.07;;
67737;SDS011;54534;43.612;1.572;2022-12-18T16:59:15;39.90;;;7.53;;
67737;SDS011;54534;43.612;1.572;2022-12-18T17:01:40;38.80;;;7.23;;
67737;SDS011;54534;43.612;1.572;2022-12-18T17:04:06;46.03;;;7.07;;
67737;SDS011;54534;43.612;1.572;2022-12-18T17:06:33;35.40;;;6.33;;
67737;SDS011;54534;43.612;1.572;2022-12-18T17:09:04;50.27;;;7.40;;
67737;SDS011;54534;43.612;1.572;2022-12-18T17:11:32;50.17;;;8.13;;
67737;SDS011;54534;43.612;1.572;2022-12-18T17:13:59;47.40;;;8.60;;
67737;SDS011;54534;43.612;1.572;2022-12-18T17:16:29;65.13;;;9.50;;
67737;SDS011;54534;43.612;1.572;2022-12-18T17:18:55;71.77;;;12.47;;
67737;SDS011;54534;43.612;1.572;2022-12-18T17:21:20;84.27;;;11.57;;
67737;SDS011;54534;43.612;1.572;2022-12-18T17:23:46;103.63;;;14.47;;
67737;SDS011;54534;43.612;1.572;2022-12-18T17:26:11;134.73;;;17.73;;